sensor_id;sensor_type;location;lat;lon;timestamp;temperature;humidity
35299;DHT22;21415;48.054;16.646;2022-12-07T00:00:54;11.60;51.00
35299;DHT22;21415;48.054;16.646;2022-12-07T00:03:20;11.60;51.00
35299;DHT22;21415;48.054;16.646;2022-12-07T00:05:46;11.60;51.00
35299;DHT22;21415;48.054;16.646;2022-12-07T00:08:12;11.60;51.00
35299;DHT22;21415;48.054;16.646;2022-12-07T00:10:37;11.60;51.00
35299;DHT22;21415;48.054;16.646;2022-12-07T00:13:03;11.60;51.00
35299;DHT22;21415;48.054;16.646;2022-12-07T00:15:29;11.60;51.10
35299;DHT22;21415;48.054;16.646;2022-12-07T00:17:55;11.60;51.10
35299;DHT22;21415;48.054;16.646;2022-12-07T00:20:20;11.60;51.00
35299;DHT22;21415;48.054;16.646;2022-12-07T00:22:46;11.50;50.90
35299;DHT22;21415;48.054;16.646;2022-12-07T00:25:12;11.60;50.90
35299;DHT22;21415;48.054;16.646;2022-12-07T00:27:37;11.60;50.80
35299;DHT22;21415;48.054;16.646;2022-12-07T00:30:04;11.60;50.80
35299;DHT22;21415;48.054;16.646;2022-12-07T00:32:30;11.60;51.00
35299;DHT22;21415;48.054;16.646;2022-12-07T00:34:55;11.50;51.00
35299;DHT22;21415;48.054;16.646;2022-12-07T00:37:21;11.60;51.00
35299;DHT22;21415;48.054;16.646;2022-12-07T00:39:47;11.60;51.00
35299;DHT22;21415;48.054;16.646;2022-12-07T00:42:12;11.60;51.00
35299;DHT22;21415;48.054;16.646;2022-12-07T00:44:38;11.60;51.00
35299;DHT22;21415;48.054;16.646;2022-12-07T00:47:04;11.60;51.00
35299;DHT22;21415;48.054;16.646;2022-12-07T00:49:31;11.60;51.00
35299;DHT22;21415;48.054;16.646;2022-12-07T00:51:57;11.60;50.90
35299;DHT22;21415;48.054;16.646;2022-12-07T00:54:22;11.60;50.90
35299;DHT22;21415;48.054;16.646;2022-12-07T00:56:48;11.60;50.90
35299;DHT22;21415;48.054;16.646;2022-12-07T00:59:14;11.60;50.90
35299;DHT22;21415;48.054;16.646;2022-12-07T01:01:40;11.50;50.80
35299;DHT22;21415;48.054;16.646;2022-12-07T01:04:06;11.60;50.80
35299;DHT22;21415;48.054;16.646;2022-12-07T01:06:32;11.60;50.90
35299;DHT22;21415;48.054;16.646;2022-12-07T01:08:58;11.50;50.80
35299;DHT22;21415;48.054;16.646;2022-12-07T01:11:26;11.50;50.90
35299;DHT22;21415;48.054;16.646;2022-12-07T01:13:53;11.50;51.00
35299;DHT22;21415;48.054;16.646;2022-12-07T01:16:21;11.50;51.00
35299;DHT22;21415;48.054;16.646;2022-12-07T01:18:49;11.50;51.00
35299;DHT22;21415;48.054;16.646;2022-12-07T01:21:17;11.50;51.00
35299;DHT22;21415;48.054;16.646;2022-12-07T01:23:43;11.60;51.10
35299;DHT22;21415;48.054;16.646;2022-12-07T01:26:15;11.50;51.00
35299;DHT22;21415;48.054;16.646;2022-12-07T01:28:41;11.50;51.00
35299;DHT22;21415;48.054;16.646;2022-12-07T01:31:10;11.50;50.90
35299;DHT22;21415;48.054;16.646;2022-12-07T01:33:41;11.60;51.00
35299;DHT22;21415;48.054;16.646;2022-12-07T01:36:23;11.50;50.90
35299;DHT22;21415;48.054;16.646;2022-12-07T01:38:51;11.50;50.80
35299;DHT22;21415;48.054;16.646;2022-12-07T01:41:20;11.50;50.80
35299;DHT22;21415;48.054;16.646;2022-12-07T01:44:13;11.50;50.80
35299;DHT22;21415;48.054;16.646;2022-12-07T01:46:39;11.50;50.70
35299;DHT22;21415;48.054;16.646;2022-12-07T01:49:06;11.60;50.80
35299;DHT22;21415;48.054;16.646;2022-12-07T01:51:33;11.60;50.90
35299;DHT22;21415;48.054;16.646;2022-12-07T01:54:01;11.50;50.60
35299;DHT22;21415;48.054;16.646;2022-12-07T01:56:28;11.60;50.60
35299;DHT22;21415;48.054;16.646;2022-12-07T01:58:56;11.60;50.50
35299;DHT22;21415;48.054;16.646;2022-12-07T02:01:22;11.50;50.50
35299;DHT22;21415;48.054;16.646;2022-12-07T02:03:48;11.50;50.40
35299;DHT22;21415;48.054;16.646;2022-12-07T02:06:17;11.50;50.50
35299;DHT22;21415;48.054;16.646;2022-12-07T02:08:44;11.50;50.50
35299;DHT22;21415;48.054;16.646;2022-12-07T02:11:10;11.50;50.60
35299;DHT22;21415;48.054;16.646;2022-12-07T02:13:38;11.50;50.60
35299;DHT22;21415;48.054;16.646;2022-12-07T02:29:22;11.50;51.40
35299;DHT22;21415;48.054;16.646;2022-12-07T02:32:11;11.60;50.90
35299;DHT22;21415;48.054;16.646;2022-12-07T02:42:45;11.60;51.10
35299;DHT22;21415;48.054;16.646;2022-12-07T02:45:15;11.60;51.10
35299;DHT22;21415;48.054;16.646;2022-12-07T02:47:43;11.60;51.10
35299;DHT22;21415;48.054;16.646;2022-12-07T02:50:10;11.60;51.10
35299;DHT22;21415;48.054;16.646;2022-12-07T02:52:36;11.60;51.10
35299;DHT22;21415;48.054;16.646;2022-12-07T02:55:02;11.60;51.10
35299;DHT22;21415;48.054;16.646;2022-12-07T02:58:01;11.70;51.10
35299;DHT22;21415;48.054;16.646;2022-12-07T03:00:34;11.60;51.00
35299;DHT22;21415;48.054;16.646;2022-12-07T03:03:09;11.60;51.10
35299;DHT22;21415;48.054;16.646;2022-12-07T03:11:09;11.70;51.00
35299;DHT22;21415;48.054;16.646;2022-12-07T03:16:23;11.70;51.00
35299;DHT22;21415;48.054;16.646;2022-12-07T03:18:56;11.70;51.10
35299;DHT22;21415;48.054;16.646;2022-12-07T03:21:26;11.70;50.90
35299;DHT22;21415;48.054;16.646;2022-12-07T03:23:58;11.70;51.00
35299;DHT22;21415;48.054;16.646;2022-12-07T03:26:34;11.80;51.00
35299;DHT22;21415;48.054;16.646;2022-12-07T03:29:07;11.80;51.00
35299;DHT22;21415;48.054;16.646;2022-12-07T03:31:41;11.80;51.00
35299;DHT22;21415;48.054;16.646;2022-12-07T03:34:11;11.80;50.90
35299;DHT22;21415;48.054;16.646;2022-12-07T03:36:55;11.80;51.00
35299;DHT22;21415;48.054;16.646;2022-12-07T03:39:30;11.80;50.80
35299;DHT22;21415;48.054;16.646;2022-12-07T03:41:59;11.80;50.80
35299;DHT22;21415;48.054;16.646;2022-12-07T03:44:26;11.80;50.90
35299;DHT22;21415;48.054;16.646;2022-12-07T03:49:56;11.90;50.80
35299;DHT22;21415;48.054;16.646;2022-12-07T03:52:33;11.80;50.80
35299;DHT22;21415;48.054;16.646;2022-12-07T03:55:28;11.80;50.80
35299;DHT22;21415;48.054;16.646;2022-12-07T03:58:01;11.80;50.70
35299;DHT22;21415;48.054;16.646;2022-12-07T04:00:29;11.90;50.80
35299;DHT22;21415;48.054;16.646;2022-12-07T04:02:55;11.80;50.70
35299;DHT22;21415;48.054;16.646;2022-12-07T04:05:21;11.90;50.80
35299;DHT22;21415;48.054;16.646;2022-12-07T04:07:47;11.80;50.80
35299;DHT22;21415;48.054;16.646;2022-12-07T04:10:13;11.90;50.70
35299;DHT22;21415;48.054;16.646;2022-12-07T04:12:39;11.90;50.70
35299;DHT22;21415;48.054;16.646;2022-12-07T04:15:05;11.90;50.70
35299;DHT22;21415;48.054;16.646;2022-12-07T04:17:31;11.90;50.80
35299;DHT22;21415;48.054;16.646;2022-12-07T04:19:57;11.90;50.80
35299;DHT22;21415;48.054;16.646;2022-12-07T04:22:23;11.90;50.70
35299;DHT22;21415;48.054;16.646;2022-12-07T04:24:49;11.90;50.70
35299;DHT22;21415;48.054;16.646;2022-12-07T04:27:14;11.90;50.70
35299;DHT22;21415;48.054;16.646;2022-12-07T04:29:40;11.90;50.70
35299;DHT22;21415;48.054;16.646;2022-12-07T04:32:06;11.90;50.70
35299;DHT22;21415;48.054;16.646;2022-12-07T04:34:32;11.90;50.70
35299;DHT22;21415;48.054;16.646;2022-12-07T04:36:58;11.90;50.70
35299;DHT22;21415;48.054;16.646;2022-12-07T04:39:26;11.90;50.70
35299;DHT22;21415;48.054;16.646;2022-12-07T04:41:52;11.90;50.70
35299;DHT22;21415;48.054;16.646;2022-12-07T04:44:19;11.90;50.80
35299;DHT22;21415;48.054;16.646;2022-12-07T04:46:46;11.90;50.80
35299;DHT22;21415;48.054;16.646;2022-12-07T04:49:12;11.90;50.70
35299;DHT22;21415;48.054;16.646;2022-12-07T04:51:39;11.90;50.80
35299;DHT22;21415;48.054;16.646;2022-12-07T04:54:05;11.90;50.70
35299;DHT22;21415;48.054;16.646;2022-12-07T04:56:31;11.90;50.80
35299;DHT22;21415;48.054;16.646;2022-12-07T04:58:57;11.90;50.70
35299;DHT22;21415;48.054;16.646;2022-12-07T05:01:23;11.90;50.70
35299;DHT22;21415;48.054;16.646;2022-12-07T05:03:49;11.90;50.70
35299;DHT22;21415;48.054;16.646;2022-12-07T05:06:16;11.90;50.90
35299;DHT22;21415;48.054;16.646;2022-12-07T05:08:42;11.90;50.70
35299;DHT22;21415;48.054;16.646;2022-12-07T05:11:09;11.90;50.70
35299;DHT22;21415;48.054;16.646;2022-12-07T05:13:36;11.90;50.80
35299;DHT22;21415;48.054;16.646;2022-12-07T05:16:01;11.90;50.70
35299;DHT22;21415;48.054;16.646;2022-12-07T05:18:27;11.90;50.90
35299;DHT22;21415;48.054;16.646;2022-12-07T05:20:53;11.90;50.90
35299;DHT22;21415;48.054;16.646;2022-12-07T05:23:19;11.90;50.70
35299;DHT22;21415;48.054;16.646;2022-12-07T05:25:46;11.90;50.70
35299;DHT22;21415;48.054;16.646;2022-12-07T05:28:11;11.90;50.80
35299;DHT22;21415;48.054;16.646;2022-12-07T05:30:37;11.80;50.70
35299;DHT22;21415;48.054;16.646;2022-12-07T05:33:03;11.80;50.70
35299;DHT22;21415;48.054;16.646;2022-12-07T05:35:30;11.80;50.70
35299;DHT22;21415;48.054;16.646;2022-12-07T05:37:56;11.80;50.70
35299;DHT22;21415;48.054;16.646;2022-12-07T05:40:22;11.80;50.70
35299;DHT22;21415;48.054;16.646;2022-12-07T05:42:48;11.80;50.70
35299;DHT22;21415;48.054;16.646;2022-12-07T05:45:14;11.80;50.70
35299;DHT22;21415;48.054;16.646;2022-12-07T05:47:40;11.80;50.80
35299;DHT22;21415;48.054;16.646;2022-12-07T05:50:06;11.70;50.70
35299;DHT22;21415;48.054;16.646;2022-12-07T05:52:32;11.80;50.80
35299;DHT22;21415;48.054;16.646;2022-12-07T05:54:58;11.70;50.90
35299;DHT22;21415;48.054;16.646;2022-12-07T05:57:24;11.70;50.70
35299;DHT22;21415;48.054;16.646;2022-12-07T05:59:49;11.70;50.80
35299;DHT22;21415;48.054;16.646;2022-12-07T06:02:16;11.70;50.80
35299;DHT22;21415;48.054;16.646;2022-12-07T06:04:45;11.70;50.90
35299;DHT22;21415;48.054;16.646;2022-12-07T06:07:13;11.70;50.90
35299;DHT22;21415;48.054;16.646;2022-12-07T06:09:39;11.70;50.90
35299;DHT22;21415;48.054;16.646;2022-12-07T06:12:05;11.70;50.90
35299;DHT22;21415;48.054;16.646;2022-12-07T06:14:50;11.70;50.90
35299;DHT22;21415;48.054;16.646;2022-12-07T06:17:16;11.80;51.00
35299;DHT22;21415;48.054;16.646;2022-12-07T06:19:43;11.80;50.90
35299;DHT22;21415;48.054;16.646;2022-12-07T06:22:09;11.80;51.10
35299;DHT22;21415;48.054;16.646;2022-12-07T06:24:36;11.80;51.40
35299;DHT22;21415;48.054;16.646;2022-12-07T06:27:01;11.80;51.30
35299;DHT22;21415;48.054;16.646;2022-12-07T06:29:27;11.80;50.80
35299;DHT22;21415;48.054;16.646;2022-12-07T06:31:53;11.90;50.90
35299;DHT22;21415;48.054;16.646;2022-12-07T06:34:20;11.80;50.80
35299;DHT22;21415;48.054;16.646;2022-12-07T06:36:48;11.80;50.80
35299;DHT22;21415;48.054;16.646;2022-12-07T06:39:23;11.90;50.80
35299;DHT22;21415;48.054;16.646;2022-12-07T06:41:50;11.80;50.70
35299;DHT22;21415;48.054;16.646;2022-12-07T06:44:17;11.90;50.80
35299;DHT22;21415;48.054;16.646;2022-12-07T06:46:43;11.80;50.80
35299;DHT22;21415;48.054;16.646;2022-12-07T06:49:09;11.90;50.90
35299;DHT22;21415;48.054;16.646;2022-12-07T06:51:35;11.90;50.90
35299;DHT22;21415;48.054;16.646;2022-12-07T06:54:03;11.90;50.90
35299;DHT22;21415;48.054;16.646;2022-12-07T06:56:29;11.90;50.90
35299;DHT22;21415;48.054;16.646;2022-12-07T06:58:55;11.90;50.70
35299;DHT22;21415;48.054;16.646;2022-12-07T07:01:21;11.90;50.70
35299;DHT22;21415;48.054;16.646;2022-12-07T07:03:47;11.90;50.70
35299;DHT22;21415;48.054;16.646;2022-12-07T07:06:14;11.90;51.30
35299;DHT22;21415;48.054;16.646;2022-12-07T07:08:40;12.00;50.80
35299;DHT22;21415;48.054;16.646;2022-12-07T07:11:07;11.90;50.70
35299;DHT22;21415;48.054;16.646;2022-12-07T07:13:33;12.00;50.90
35299;DHT22;21415;48.054;16.646;2022-12-07T07:15:59;12.00;50.80
35299;DHT22;21415;48.054;16.646;2022-12-07T07:18:25;12.00;50.90
35299;DHT22;21415;48.054;16.646;2022-12-07T07:20:51;12.00;50.90
35299;DHT22;21415;48.054;16.646;2022-12-07T07:23:19;12.00;50.90
35299;DHT22;21415;48.054;16.646;2022-12-07T07:25:45;12.00;50.90
35299;DHT22;21415;48.054;16.646;2022-12-07T07:28:11;12.00;50.90
35299;DHT22;21415;48.054;16.646;2022-12-07T07:30:36;12.00;50.90
35299;DHT22;21415;48.054;16.646;2022-12-07T07:33:03;12.10;51.00
35299;DHT22;21415;48.054;16.646;2022-12-07T07:35:31;12.10;50.80
35299;DHT22;21415;48.054;16.646;2022-12-07T07:37:57;12.00;50.80
35299;DHT22;21415;48.054;16.646;2022-12-07T07:40:23;12.10;50.90
35299;DHT22;21415;48.054;16.646;2022-12-07T07:42:50;12.10;51.00
35299;DHT22;21415;48.054;16.646;2022-12-07T07:45:16;12.10;51.70
35299;DHT22;21415;48.054;16.646;2022-12-07T07:47:42;12.10;51.00
35299;DHT22;21415;48.054;16.646;2022-12-07T07:50:08;12.10;51.10
35299;DHT22;21415;48.054;16.646;2022-12-07T07:52:34;12.10;51.10
35299;DHT22;21415;48.054;16.646;2022-12-07T07:55:00;12.10;51.00
35299;DHT22;21415;48.054;16.646;2022-12-07T07:57:26;12.10;50.90
35299;DHT22;21415;48.054;16.646;2022-12-07T07:59:52;12.10;51.00
35299;DHT22;21415;48.054;16.646;2022-12-07T08:02:21;12.10;51.10
35299;DHT22;21415;48.054;16.646;2022-12-07T08:04:47;12.10;51.00
35299;DHT22;21415;48.054;16.646;2022-12-07T08:07:14;12.10;51.00
35299;DHT22;21415;48.054;16.646;2022-12-07T08:09:40;12.10;50.90
35299;DHT22;21415;48.054;16.646;2022-12-07T08:12:06;12.10;50.90
35299;DHT22;21415;48.054;16.646;2022-12-07T08:14:32;12.10;50.90
35299;DHT22;21415;48.054;16.646;2022-12-07T08:16:58;12.10;50.90
35299;DHT22;21415;48.054;16.646;2022-12-07T08:19:24;12.20;50.90
35299;DHT22;21415;48.054;16.646;2022-12-07T08:21:50;12.20;51.00
35299;DHT22;21415;48.054;16.646;2022-12-07T08:24:16;12.20;51.00
35299;DHT22;21415;48.054;16.646;2022-12-07T08:26:42;12.20;51.00
35299;DHT22;21415;48.054;16.646;2022-12-07T08:29:08;12.20;51.10
35299;DHT22;21415;48.054;16.646;2022-12-07T08:31:34;12.20;51.10
35299;DHT22;21415;48.054;16.646;2022-12-07T08:33:59;12.20;51.00
35299;DHT22;21415;48.054;16.646;2022-12-07T08:36:25;12.20;51.10
35299;DHT22;21415;48.054;16.646;2022-12-07T08:38:51;12.30;51.10
35299;DHT22;21415;48.054;16.646;2022-12-07T08:41:17;12.30;51.10
35299;DHT22;21415;48.054;16.646;2022-12-07T08:43:43;12.30;51.10
35299;DHT22;21415;48.054;16.646;2022-12-07T08:46:15;12.30;51.00
35299;DHT22;21415;48.054;16.646;2022-12-07T08:48:49;12.40;51.10
35299;DHT22;21415;48.054;16.646;2022-12-07T08:51:15;12.40;50.90
35299;DHT22;21415;48.054;16.646;2022-12-07T08:53:42;12.40;50.90
35299;DHT22;21415;48.054;16.646;2022-12-07T08:56:09;12.40;50.80
35299;DHT22;21415;48.054;16.646;2022-12-07T08:58:36;12.40;50.70
35299;DHT22;21415;48.054;16.646;2022-12-07T09:01:03;12.50;50.80
35299;DHT22;21415;48.054;16.646;2022-12-07T09:03:29;12.50;50.60
35299;DHT22;21415;48.054;16.646;2022-12-07T09:05:54;12.50;50.50
35299;DHT22;21415;48.054;16.646;2022-12-07T09:08:22;12.60;50.50
35299;DHT22;21415;48.054;16.646;2022-12-07T09:10:48;12.60;50.40
35299;DHT22;21415;48.054;16.646;2022-12-07T09:13:14;12.60;50.20
35299;DHT22;21415;48.054;16.646;2022-12-07T09:15:40;12.70;50.00
35299;DHT22;21415;48.054;16.646;2022-12-07T09:18:06;12.70;49.80
35299;DHT22;21415;48.054;16.646;2022-12-07T09:20:31;12.70;49.70
35299;DHT22;21415;48.054;16.646;2022-12-07T09:22:57;12.80;49.60
35299;DHT22;21415;48.054;16.646;2022-12-07T09:25:23;12.80;49.50
35299;DHT22;21415;48.054;16.646;2022-12-07T09:27:55;12.80;49.20
35299;DHT22;21415;48.054;16.646;2022-12-07T09:30:21;12.80;48.60
35299;DHT22;21415;48.054;16.646;2022-12-07T09:32:47;12.90;49.00
35299;DHT22;21415;48.054;16.646;2022-12-07T09:35:13;12.90;48.90
35299;DHT22;21415;48.054;16.646;2022-12-07T09:37:38;12.90;48.90
35299;DHT22;21415;48.054;16.646;2022-12-07T09:40:04;12.90;48.80
35299;DHT22;21415;48.054;16.646;2022-12-07T09:42:35;13.00;48.80
35299;DHT22;21415;48.054;16.646;2022-12-07T09:45:04;13.00;48.50
35299;DHT22;21415;48.054;16.646;2022-12-07T09:47:30;13.10;48.70
35299;DHT22;21415;48.054;16.646;2022-12-07T09:50:13;13.10;48.40
35299;DHT22;21415;48.054;16.646;2022-12-07T09:52:40;13.10;47.30
35299;DHT22;21415;48.054;16.646;2022-12-07T09:55:15;13.10;47.90
35299;DHT22;21415;48.054;16.646;2022-12-07T09:57:42;13.20;47.00
35299;DHT22;21415;48.054;16.646;2022-12-07T10:00:17;13.10;47.40
35299;DHT22;21415;48.054;16.646;2022-12-07T10:02:47;13.10;46.50
35299;DHT22;21415;48.054;16.646;2022-12-07T10:05:42;13.10;46.90
35299;DHT22;21415;48.054;16.646;2022-12-07T10:08:09;13.10;46.60
35299;DHT22;21415;48.054;16.646;2022-12-07T10:10:36;13.10;46.90
35299;DHT22;21415;48.054;16.646;2022-12-07T10:13:13;13.10;46.80
35299;DHT22;21415;48.054;16.646;2022-12-07T10:20:46;12.90;45.80
35299;DHT22;21415;48.054;16.646;2022-12-07T10:23:17;12.90;46.20
35299;DHT22;21415;48.054;16.646;2022-12-07T10:25:44;12.90;46.40
35299;DHT22;21415;48.054;16.646;2022-12-07T10:28:14;12.90;46.70
35299;DHT22;21415;48.054;16.646;2022-12-07T10:30:54;12.80;46.60
35299;DHT22;21415;48.054;16.646;2022-12-07T10:33:35;12.80;45.60
35299;DHT22;21415;48.054;16.646;2022-12-07T10:36:17;12.80;45.90
35299;DHT22;21415;48.054;16.646;2022-12-07T10:38:50;12.80;45.80
35299;DHT22;21415;48.054;16.646;2022-12-07T10:41:16;12.80;46.40
35299;DHT22;21415;48.054;16.646;2022-12-07T10:43:51;12.80;46.60
35299;DHT22;21415;48.054;16.646;2022-12-07T10:55:12;12.80;45.40
35299;DHT22;21415;48.054;16.646;2022-12-07T11:00:23;12.80;46.20
35299;DHT22;21415;48.054;16.646;2022-12-07T11:03:19;12.80;45.30
35299;DHT22;21415;48.054;16.646;2022-12-07T11:11:42;12.80;45.10
35299;DHT22;21415;48.054;16.646;2022-12-07T11:17:01;12.90;45.50
35299;DHT22;21415;48.054;16.646;2022-12-07T11:20:00;12.90;45.10
35299;DHT22;21415;48.054;16.646;2022-12-07T11:22:53;12.90;44.60
35299;DHT22;21415;48.054;16.646;2022-12-07T11:28:23;13.00;44.20
35299;DHT22;21415;48.054;16.646;2022-12-07T11:31:12;13.00;44.50
35299;DHT22;21415;48.054;16.646;2022-12-07T11:34:10;13.00;44.00
35299;DHT22;21415;48.054;16.646;2022-12-07T11:36:45;13.00;43.90
35299;DHT22;21415;48.054;16.646;2022-12-07T11:39:26;13.10;44.70
35299;DHT22;21415;48.054;16.646;2022-12-07T11:42:02;13.10;44.20
35299;DHT22;21415;48.054;16.646;2022-12-07T11:53:40;13.10;43.60
35299;DHT22;21415;48.054;16.646;2022-12-07T11:56:11;13.10;43.40
35299;DHT22;21415;48.054;16.646;2022-12-07T12:03:38;13.10;44.00
35299;DHT22;21415;48.054;16.646;2022-12-07T12:06:05;13.30;44.00
35299;DHT22;21415;48.054;16.646;2022-12-07T12:08:33;13.10;44.20
35299;DHT22;21415;48.054;16.646;2022-12-07T12:22:37;13.00;43.60
35299;DHT22;21415;48.054;16.646;2022-12-07T12:25:57;13.00;43.80
35299;DHT22;21415;48.054;16.646;2022-12-07T12:27:58;12.90;43.60
35299;DHT22;21415;48.054;16.646;2022-12-07T12:30:37;12.90;44.10
35299;DHT22;21415;48.054;16.646;2022-12-07T12:35:40;12.80;43.30
35299;DHT22;21415;48.054;16.646;2022-12-07T12:38:26;12.80;44.00
35299;DHT22;21415;48.054;16.646;2022-12-07T12:40:53;12.70;43.50
35299;DHT22;21415;48.054;16.646;2022-12-07T12:43:42;12.70;44.20
35299;DHT22;21415;48.054;16.646;2022-12-07T12:48:54;12.70;43.40
35299;DHT22;21415;48.054;16.646;2022-12-07T12:51:40;12.70;44.20
35299;DHT22;21415;48.054;16.646;2022-12-07T12:54:29;12.60;43.50
35299;DHT22;21415;48.054;16.646;2022-12-07T12:57:15;12.60;43.60
35299;DHT22;21415;48.054;16.646;2022-12-07T13:02:27;12.60;43.60
35299;DHT22;21415;48.054;16.646;2022-12-07T13:05:03;12.60;43.70
35299;DHT22;21415;48.054;16.646;2022-12-07T13:20:57;12.50;43.60
35299;DHT22;21415;48.054;16.646;2022-12-07T13:23:27;12.50;43.80
35299;DHT22;21415;48.054;16.646;2022-12-07T13:28:43;12.50;43.30
35299;DHT22;21415;48.054;16.646;2022-12-07T13:31:35;12.50;43.80
35299;DHT22;21415;48.054;16.646;2022-12-07T13:34:03;12.50;43.20
35299;DHT22;21415;48.054;16.646;2022-12-07T13:36:39;12.40;43.80
35299;DHT22;21415;48.054;16.646;2022-12-07T13:41:42;12.40;43.40
35299;DHT22;21415;48.054;16.646;2022-12-07T13:44:13;12.40;43.90
35299;DHT22;21415;48.054;16.646;2022-12-07T13:46:53;12.40;43.70
35299;DHT22;21415;48.054;16.646;2022-12-07T13:49:24;12.40;43.70
35299;DHT22;21415;48.054;16.646;2022-12-07T13:51:51;12.40;43.80
35299;DHT22;21415;48.054;16.646;2022-12-07T13:54:18;12.40;43.90
35299;DHT22;21415;48.054;16.646;2022-12-07T13:56:48;12.40;43.90
35299;DHT22;21415;48.054;16.646;2022-12-07T13:59:23;12.40;43.80
35299;DHT22;21415;48.054;16.646;2022-12-07T14:01:51;12.40;43.90
35299;DHT22;21415;48.054;16.646;2022-12-07T14:04:33;12.40;44.00
35299;DHT22;21415;48.054;16.646;2022-12-07T14:07:00;12.40;43.40
35299;DHT22;21415;48.054;16.646;2022-12-07T14:09:28;12.40;43.80
35299;DHT22;21415;48.054;16.646;2022-12-07T14:11:56;12.40;43.70
35299;DHT22;21415;48.054;16.646;2022-12-07T14:14:28;12.40;43.70
35299;DHT22;21415;48.054;16.646;2022-12-07T14:17:16;12.40;43.30
35299;DHT22;21415;48.054;16.646;2022-12-07T14:22:32;12.40;43.70
35299;DHT22;21415;48.054;16.646;2022-12-07T14:25:16;12.40;43.10
35299;DHT22;21415;48.054;16.646;2022-12-07T14:27:51;12.40;43.60
35299;DHT22;21415;48.054;16.646;2022-12-07T14:30:19;12.30;43.30
35299;DHT22;21415;48.054;16.646;2022-12-07T14:32:46;12.30;43.60
35299;DHT22;21415;48.054;16.646;2022-12-07T14:35:16;12.30;43.50
35299;DHT22;21415;48.054;16.646;2022-12-07T14:37:44;12.30;43.40
35299;DHT22;21415;48.054;16.646;2022-12-07T14:40:15;12.30;43.50
35299;DHT22;21415;48.054;16.646;2022-12-07T14:42:42;12.20;43.40
35299;DHT22;21415;48.054;16.646;2022-12-07T14:45:15;12.20;43.50
35299;DHT22;21415;48.054;16.646;2022-12-07T14:47:41;12.10;43.10
35299;DHT22;21415;48.054;16.646;2022-12-07T14:50:07;12.10;43.40
35299;DHT22;21415;48.054;16.646;2022-12-07T14:52:33;12.10;43.50
35299;DHT22;21415;48.054;16.646;2022-12-07T14:54:59;12.10;43.40
35299;DHT22;21415;48.054;16.646;2022-12-07T14:57:25;12.10;43.50
35299;DHT22;21415;48.054;16.646;2022-12-07T14:59:51;12.00;43.50
35299;DHT22;21415;48.054;16.646;2022-12-07T15:02:16;12.00;43.50
35299;DHT22;21415;48.054;16.646;2022-12-07T15:04:42;11.90;43.50
35299;DHT22;21415;48.054;16.646;2022-12-07T15:07:19;12.00;43.60
35299;DHT22;21415;48.054;16.646;2022-12-07T15:09:46;11.90;43.20
35299;DHT22;21415;48.054;16.646;2022-12-07T15:12:12;11.90;43.70
35299;DHT22;21415;48.054;16.646;2022-12-07T15:14:38;11.90;43.60
35299;DHT22;21415;48.054;16.646;2022-12-07T15:17:03;11.90;43.90
35299;DHT22;21415;48.054;16.646;2022-12-07T15:19:29;11.90;43.90
35299;DHT22;21415;48.054;16.646;2022-12-07T15:21:56;11.90;43.90
35299;DHT22;21415;48.054;16.646;2022-12-07T15:24:22;11.90;43.90
35299;DHT22;21415;48.054;16.646;2022-12-07T15:26:49;11.90;43.90
35299;DHT22;21415;48.054;16.646;2022-12-07T15:29:15;11.80;43.80
35299;DHT22;21415;48.054;16.646;2022-12-07T15:31:42;11.80;43.80
35299;DHT22;21415;48.054;16.646;2022-12-07T15:34:08;11.80;43.80
35299;DHT22;21415;48.054;16.646;2022-12-07T15:36:34;11.80;43.80
35299;DHT22;21415;48.054;16.646;2022-12-07T15:39:00;11.80;43.80
35299;DHT22;21415;48.054;16.646;2022-12-07T15:41:26;11.80;43.90
35299;DHT22;21415;48.054;16.646;2022-12-07T15:43:52;11.80;43.90
35299;DHT22;21415;48.054;16.646;2022-12-07T15:46:39;11.70;44.00
35299;DHT22;21415;48.054;16.646;2022-12-07T15:49:16;11.70;43.90
35299;DHT22;21415;48.054;16.646;2022-12-07T15:51:43;11.70;43.60
35299;DHT22;21415;48.054;16.646;2022-12-07T15:54:20;11.70;44.00
35299;DHT22;21415;48.054;16.646;2022-12-07T15:56:46;11.70;43.60
35299;DHT22;21415;48.054;16.646;2022-12-07T15:59:12;11.70;44.00
35299;DHT22;21415;48.054;16.646;2022-12-07T16:01:38;11.70;44.00
35299;DHT22;21415;48.054;16.646;2022-12-07T16:04:04;11.70;44.00
35299;DHT22;21415;48.054;16.646;2022-12-07T16:06:30;11.70;43.90
35299;DHT22;21415;48.054;16.646;2022-12-07T16:08:55;11.70;44.00
35299;DHT22;21415;48.054;16.646;2022-12-07T16:11:22;11.70;44.00
35299;DHT22;21415;48.054;16.646;2022-12-07T16:13:48;11.70;44.00
35299;DHT22;21415;48.054;16.646;2022-12-07T16:16:15;11.60;43.90
35299;DHT22;21415;48.054;16.646;2022-12-07T16:18:43;11.60;43.90
35299;DHT22;21415;48.054;16.646;2022-12-07T16:21:09;11.60;43.90
35299;DHT22;21415;48.054;16.646;2022-12-07T16:23:34;11.60;43.90
35299;DHT22;21415;48.054;16.646;2022-12-07T16:26:15;11.60;44.00
35299;DHT22;21415;48.054;16.646;2022-12-07T16:28:42;11.60;43.70
35299;DHT22;21415;48.054;16.646;2022-12-07T16:31:13;11.50;43.90
35299;DHT22;21415;48.054;16.646;2022-12-07T16:33:40;11.50;43.90
35299;DHT22;21415;48.054;16.646;2022-12-07T16:36:07;11.50;43.90
35299;DHT22;21415;48.054;16.646;2022-12-07T16:38:34;11.50;43.90
35299;DHT22;21415;48.054;16.646;2022-12-07T16:41:00;11.50;44.50
35299;DHT22;21415;48.054;16.646;2022-12-07T16:43:26;11.40;43.90
35299;DHT22;21415;48.054;16.646;2022-12-07T16:45:52;11.40;44.00
35299;DHT22;21415;48.054;16.646;2022-12-07T16:48:17;11.40;44.00
35299;DHT22;21415;48.054;16.646;2022-12-07T16:50:44;11.40;44.00
35299;DHT22;21415;48.054;16.646;2022-12-07T16:53:11;11.40;44.10
35299;DHT22;21415;48.054;16.646;2022-12-07T16:55:44;11.40;44.00
35299;DHT22;21415;48.054;16.646;2022-12-07T16:58:12;11.40;44.00
35299;DHT22;21415;48.054;16.646;2022-12-07T17:00:39;11.30;44.00
35299;DHT22;21415;48.054;16.646;2022-12-07T17:03:05;11.30;44.10
35299;DHT22;21415;48.054;16.646;2022-12-07T17:05:31;11.30;44.70
35299;DHT22;21415;48.054;16.646;2022-12-07T17:07:57;11.30;44.20
35299;DHT22;21415;48.054;16.646;2022-12-07T17:10:24;11.30;44.20
35299;DHT22;21415;48.054;16.646;2022-12-07T17:12:50;11.30;44.30
35299;DHT22;21415;48.054;16.646;2022-12-07T17:15:15;11.30;44.30
35299;DHT22;21415;48.054;16.646;2022-12-07T17:17:46;11.30;44.90
35299;DHT22;21415;48.054;16.646;2022-12-07T17:20:12;11.20;44.30
35299;DHT22;21415;48.054;16.646;2022-12-07T17:22:38;11.20;44.30